aviador You're here:

WBGB Decoded Metar

BINTULU in MALAYSIA
Report Time2018-01-18 11:00:00
UTC Time2018-01-18 11:32:45
Flight Rules vfr VFR
WindCalm
Visibility9999 m
Phenomena:Light Rain
Clouds:Scattered 014 Hf
Broken 150 Hf
Ceiling15,000 ft
Temp26°C (ISA +11)
Dew Point26°C (100% RH)
QNH1006 hPa
Density Alt1,969 ft
Elevation16 ft
Report Wrong Elevation
Raw Report
METAR WBGB 181100Z 00000KT 9999 -RA SCT014 BKN150 26/26 Q1006=

Extra information for WBGB:More info

Metar Taf Metar & Taf Last 4 Metars F.Rules Stats Wind Profile Meteogram Temp Stats Airport Information Weather charts Add Link Nearby VenuesMetar ALERT Operation Metar Decoded Social comments